Ben-my-chree — MXLG6 — position and weather

sailwx.info

Track history (hours):
 
Tides and Currents Weather Stations Pressure Air Temp Water Temp Dewpoint Dewpoint Depression Visibility Wind Speed Wind Dir Waves Ship Positions

Ben-my-chree

Operator: The Isle of Man Steam Packet Co Ltd

Last reported at 2019-Oct-17 14:27 UTC. Time now 2019-Oct-17 15:10 UTC.
Position N 53°56' W 003°30'.

Length 125 m; draft 5 m.

Type: Ship. MMSI: 234983000.

Date/timePositionNaut miles runAvg speedWind from/ knotsBaromVisibWave heightAir tempDewpointWater temp
2019-Oct-17 14:27N 53°56' W 003°30'818.0
2019-Oct-17 14:00N 53°56' W 003°17'917.7
2019-Oct-17 13:31N 53°58' W 003°03'6 6.0
2019-Oct-17 12:29N 54°02' W 002°55'0 0.0
2019-Oct-17 11:45N 54°02' W 002°55'0 0.0
2019-Oct-17 11:28N 54°02' W 002°55'1 2.5
2019-Oct-17 11:00N 54°02' W 002°57'1019.8
2019-Oct-17 10:30N 53°56' W 003°10'918.0
2019-Oct-17 10:00N 53°56' W 003°26'917.2
2019-Oct-17 09:30N 53°58' W 003°40'7 0.9
2019-Oct-17 02:19N 53°56' W 003°29'618.1
2019-Oct-17 01:59N 53°56' W 003°20'817.6
2019-Oct-17 01:30N 53°57' W 003°05'815.2
2019-Oct-17 01:00N 54°02' W 002°55'0 0.0
2019-Oct-16 23:49N 54°02' W 002°55'0 0.0
2019-Oct-16 23:01N 54°02' W 002°55'0 0.0
2019-Oct-16 22:55N 54°02' W 002°55'0 0.0
2019-Oct-16 22:13N 54°02' W 002°55'0 0.6
2019-Oct-16 22:00N 54°02' W 002°55'917.1
2019-Oct-16 21:30N 53°57' W 003°06'918.9
2019-Oct-16 21:00N 53°56' W 003°22'917.9
2019-Oct-16 20:30N 53°58' W 003°37'917.9
2019-Oct-16 19:59N 54°01' W 003°53'14 2.5
2019-Oct-16 14:25N 53°56' W 003°31'717.8
2019-Oct-16 14:01N 53°55' W 003°18'917.5
2019-Oct-16 13:31N 53°57' W 003°04'714.0
2019-Oct-16 13:00N 54°02' W 002°55'0 0.0
2019-Oct-16 10:58N 54°02' W 002°55'613.3
2019-Oct-16 10:30N 53°58' W 003°03'1019.6
2019-Oct-16 10:00N 53°55' W 003°18'918.7
2019-Oct-16 09:30N 53°55' W 003°34'1018.5
2019-Oct-16 08:57N 53°60' W 003°50'13 2.0
2019-Oct-16 02:14N 53°56' W 003°29'518.7
2019-Oct-16 01:59N 53°56' W 003°21'918.6
2019-Oct-16 01:30N 53°57' W 003°06'816.7
2019-Oct-16 01:00N 54°02' W 002°55'0 0.0
2019-Oct-15 22:12N 54°02' W 002°55'0 0.4
2019-Oct-15 21:59N 54°02' W 002°55'715.3
2019-Oct-15 21:30N 53°57' W 003°05'1019.1
2019-Oct-15 21:00N 53°55' W 003°20'918.4
2019-Oct-15 20:30N 53°57' W 003°36'918.2
2019-Oct-15 20:00N 54°01' W 003°50'14 2.4
2019-Oct-15 14:15N 53°56' W 003°29'418.3
2019-Oct-15 14:00N 53°56' W 003°21'918.6
2019-Oct-15 13:30N 53°57' W 003°06'8 3.5
2019-Oct-15 11:13N 54°02' W 002°55'0 1.7
2019-Oct-15 11:00N 54°02' W 002°56'918.0
2019-Oct-15 10:30N 53°56' W 003°08'918.7
2019-Oct-15 10:00N 53°56' W 003°23'918.1
2019-Oct-15 09:30N 53°58' W 003°38'6 0.8
2019-Oct-15 02:14N 53°56' W 003°29'418.9
2019-Oct-15 02:01N 53°56' W 003°22'918.9
2019-Oct-15 01:31N 53°57' W 003°06'816.7
2019-Oct-15 01:00N 54°02' W 002°55'0 0.0
2019-Oct-15 00:26N 54°02' W 002°55'0 0.0
2019-Oct-15 00:00N 54°02' W 002°55'0 0.0
2019-Oct-14 23:30N 54°02' W 002°55'0 0.0
2019-Oct-14 22:59N 54°02' W 002°55'0 0.0
2019-Oct-14 22:30N 54°02' W 002°55'0 0.0
2019-Oct-14 22:00N 54°02' W 002°55'713.7
2019-Oct-14 21:30N 53°58' W 003°04'918.7
2019-Oct-14 21:00N 53°56' W 003°19'917.8
2019-Oct-14 20:30N 53°57' W 003°34'1017.9
2019-Oct-14 19:58N 54°00' W 003°50'14 2.4
2019-Oct-14 14:19N 53°56' W 003°28'719.0
2019-Oct-14 13:57N 53°56' W 003°17'919.4
2019-Oct-14 13:30N 53°58' W 003°03'6 6.6
2019-Oct-14 12:37N 54°02' W 002°55'0 0.0
2019-Oct-14 12:28N 54°02' W 002°55'0 0.0
2019-Oct-14 11:22N 54°02' W 002°55'0 0.2
2019-Oct-14 11:00N 54°02' W 002°55'816.4
2019-Oct-14 10:30N 53°57' W 003°06'918.2
2019-Oct-14 10:00N 53°56' W 003°21'917.6
2019-Oct-14 09:30N 53°57' W 003°36'1117.8
2019-Oct-14 08:55N 54°01' W 003°53'918.0
2019-Oct-14 08:25N 54°04' W 004°07'24 3.9
2019-Oct-14 02:13N 53°56' W 003°29'418.5
2019-Oct-14 02:00N 53°56' W 003°22'918.6
2019-Oct-14 01:30N 53°57' W 003°06'816.5
2019-Oct-14 01:00N 54°02' W 002°55'0 0.0
2019-Oct-13 22:24N 54°02' W 002°55'410.1
2019-Oct-13 22:01N 53°59' W 002°60'1019.5
2019-Oct-13 21:31N 53°56' W 003°15'1019.2
2019-Oct-13 21:00N 53°56' W 003°32'1 0.2
2019-Oct-13 14:23N 53°56' W 003°29'818.8
2019-Oct-13 13:58N 53°56' W 003°16'919.6
2019-Oct-13 13:30N 53°59' W 003°02'5 9.0
2019-Oct-13 12:55N 54°02' W 002°55'0 0.0
2019-Oct-13 12:28N 54°02' W 002°55'0 0.0
2019-Oct-13 11:16N 54°02' W 002°55'1 2.2
2019-Oct-13 11:01N 54°02' W 002°56'917.3
2019-Oct-13 10:30N 53°56' W 003°07'917.8
2019-Oct-13 10:00N 53°56' W 003°22'817.0
2019-Oct-13 09:30N 53°57' W 003°36'4 0.5
2019-Oct-13 02:14N 53°56' W 003°30'418.9
2019-Oct-13 02:01N 53°56' W 003°23'1019.1
2019-Oct-13 01:31N 53°57' W 003°07'917.9
2019-Oct-13 01:00N 54°02' W 002°55'0 0.0
2019-Oct-13 00:08N 54°02' W 002°55'0 0.0
2019-Oct-13 00:00N 54°02' W 002°55'0 0.0
2019-Oct-12 23:30N 54°02' W 002°55'0 0.0
2019-Oct-12 21:54N 54°02' W 002°55'411.4
2019-Oct-12 21:30N 53°59' W 003°00'1019.0
2019-Oct-12 21:00N 53°56' W 003°16'918.6
2019-Oct-12 20:30N 53°56' W 003°31'1118.4
2019-Oct-12 19:54N 54°00' W 003°49'12 2.2
2019-Oct-12 14:15N 53°56' W 003°29'418.1
2019-Oct-12 14:00N 53°56' W 003°22'918.2
2019-Oct-12 13:30N 53°57' W 003°06'916.5
2019-Oct-12 12:59N 54°02' W 002°55'0 0.0
2019-Oct-12 11:48N 54°02' W 002°55'0 0.1
2019-Oct-12 11:04N 54°02' W 002°55'0 0.7
2019-Oct-12 11:00N 54°02' W 002°55'815.5
2019-Oct-12 10:30N 53°57' W 003°05'917.7
2019-Oct-12 10:00N 53°55' W 003°20'918.0
2019-Oct-12 09:30N 53°56' W 003°35'4 0.6
2019-Oct-12 02:16N 53°56' W 003°28'517.3
2019-Oct-12 02:00N 53°56' W 003°20'917.6
2019-Oct-12 01:30N 53°57' W 003°05'8 3.0
2019-Oct-11 22:51N 54°02' W 002°55'0 0.0
2019-Oct-11 22:30N 54°02' W 002°55'0 0.2
2019-Oct-11 22:00N 54°02' W 002°55'815.1
2019-Oct-11 21:31N 53°57' W 003°05'918.3
2019-Oct-11 21:01N 53°55' W 003°20'918.0
2019-Oct-11 20:31N 53°57' W 003°35'1018.3
2019-Oct-11 19:59N 54°01' W 003°51'13 2.3
2019-Oct-11 14:29N 53°56' W 003°30'817.1
2019-Oct-11 14:00N 53°56' W 003°16'917.9
2019-Oct-11 13:30N 53°58' W 003°02'6 3.6
2019-Oct-11 11:55N 54°02' W 002°55'0 0.1
2019-Oct-11 11:08N 54°02' W 002°55'0 3.9
2019-Oct-11 11:01N 54°02' W 002°56'816.4
2019-Oct-11 10:30N 53°57' W 003°06'917.5
2019-Oct-11 10:00N 53°55' W 003°21'917.6
2019-Oct-11 09:31N 53°56' W 003°36'3 0.5
2019-Oct-11 02:23N 53°56' W 003°30'816.4
2019-Oct-11 01:53N 53°56' W 003°16'616.8
2019-Oct-11 01:30N 53°57' W 003°06'815.8
2019-Oct-11 01:00N 54°02' W 002°55'0 0.0
2019-Oct-11 00:29N 54°02' W 002°55'0 0.0
2019-Oct-11 00:00N 54°02' W 002°55'0 0.0
2019-Oct-10 23:30N 54°02' W 002°55'0 0.0
2019-Oct-10 23:00N 54°02' W 002°55'0 0.0
2019-Oct-10 22:30N 54°02' W 002°55'0 0.3
2019-Oct-10 22:01N 54°02' W 002°55'714.9
2019-Oct-10 21:30N 53°57' W 003°05'917.3
2019-Oct-10 21:00N 53°56' W 003°19'917.5
2019-Oct-10 20:30N 53°57' W 003°34'918.1
2019-Oct-10 20:00N 54°00' W 003°49'12 2.1
2019-Oct-10 14:20N 53°56' W 003°29'516.8
2019-Oct-10 14:01N 53°56' W 003°20'917.2
2019-Oct-10 13:31N 53°57' W 003°06'815.2
2019-Oct-10 12:59N 54°02' W 002°55'0 0.0
2019-Oct-10 12:18N 54°02' W 002°55'0 0.0
2019-Oct-10 11:08N 54°02' W 002°55'0 3.0
2019-Oct-10 11:00N 54°02' W 002°56'815.3
2019-Oct-10 10:30N 53°57' W 003°05'816.7
2019-Oct-10 10:01N 53°56' W 003°19'917.3
2019-Oct-10 09:31N 53°57' W 003°34'917.6
2019-Oct-10 09:00N 54°00' W 003°48'13 1.9
2019-Oct-10 02:21N 53°56' W 003°28'716.2
2019-Oct-10 01:55N 53°56' W 003°16'716.7
2019-Oct-10 01:30N 53°57' W 003°05'813.3
2019-Oct-10 00:56N 54°02' W 002°55'0 0.0
2019-Oct-09 23:38N 54°02' W 002°55'0 0.0
2019-Oct-09 23:17N 54°02' W 002°55'0 0.0
2019-Oct-09 22:53N 54°02' W 002°55'0 0.0
2019-Oct-09 22:09N 54°02' W 002°55'1 4.0
2019-Oct-09 22:00N 54°02' W 002°56'816.5
2019-Oct-09 21:30N 53°57' W 003°06'917.2
2019-Oct-09 21:00N 53°55' W 003°21'917.6
2019-Oct-09 20:30N 53°57' W 003°36'1017.9
2019-Oct-09 19:56N 54°01' W 003°52'14 2.6
2019-Oct-09 14:25N 53°56' W 003°29'815.6
2019-Oct-09 13:53N 53°56' W 003°15'616.6
2019-Oct-09 13:31N 53°57' W 003°05'7 4.2
2019-Oct-09 11:45N 54°02' W 002°55'0 0.0
2019-Oct-09 11:15N 54°02' W 002°55'1 3.8
2019-Oct-09 11:00N 54°02' W 002°56'816.5
2019-Oct-09 10:30N 53°56' W 003°07'816.8
2019-Oct-09 10:00N 53°56' W 003°21'917.2
2019-Oct-09 09:30N 53°57' W 003°36'917.4
2019-Oct-09 09:00N 54°00' W 003°50'13 2.1
2019-Oct-09 02:30N 53°56' W 003°28'815.8
2019-Oct-09 02:00N 53°56' W 003°15'816.6
2019-Oct-09 01:30N 53°58' W 003°02'5 6.2
2019-Oct-09 00:38N 54°02' W 002°55'0 0.0
2019-Oct-09 00:02N 54°02' W 002°55'0 0.0
2019-Oct-08 23:59N 54°02' W 002°55'0 0.0
2019-Oct-08 22:19N 54°02' W 002°55'3 9.4
2019-Oct-08 22:00N 54°00' W 002°59'816.4
2019-Oct-08 21:30N 53°56' W 003°11'816.8
2019-Oct-08 21:00N 53°56' W 003°25'817.0
2019-Oct-08 20:30N 53°58' W 003°39'6 1.0
2019-Oct-08 14:28N 53°56' W 003°29'815.9
2019-Oct-08 13:59N 53°56' W 003°16'816.3
2019-Oct-08 13:30N 53°58' W 003°03'611.3
2019-Oct-08 12:56N 54°02' W 002°55'0 0.0
2019-Oct-08 11:18N 54°02' W 002°55'310.3
2019-Oct-08 11:00N 54°00' W 002°59'816.5
2019-Oct-08 10:30N 53°56' W 003°11'816.9
2019-Oct-08 10:00N 53°55' W 003°25'816.9
2019-Oct-08 09:30N 53°57' W 003°40'917.2
2019-Oct-08 08:57N 53°60' W 003°55'15 2.3
2019-Oct-08 02:29N 53°56' W 003°30'915.7
2019-Oct-08 01:56N 53°56' W 003°15'716.6
2019-Oct-08 01:31N 53°57' W 003°04'713.7
2019-Oct-08 01:00N 54°02' W 002°55'0 0.0
2019-Oct-08 00:26N 54°02' W 002°55'0 0.0
2019-Oct-08 00:00N 54°02' W 002°55'0 0.0
2019-Oct-07 23:30N 54°02' W 002°55'0 0.0
2019-Oct-07 23:00N 54°02' W 002°55'0 0.0
2019-Oct-07 22:30N 54°02' W 002°55'510.3
2019-Oct-07 22:00N 53°59' W 003°01'816.4
2019-Oct-07 21:30N 53°56' W 003°14'816.8
2019-Oct-07 21:00N 53°56' W 003°29'816.7
2019-Oct-07 20:30N 53°59' W 003°42'916.8
2019-Oct-07 20:00N 54°01' W 003°56'17 3.1
2019-Oct-07 14:35N 53°56' W 003°29'115.8
2019-Oct-07 14:30N 53°56' W 003°26'  
Track history (hours):
 
Tides and Currents Weather Stations Pressure Air Temp Water Temp Dewpoint Dewpoint Depression Visibility Wind Speed Wind Dir Waves Ship Positions

Ben-my-chree

Operator: The Isle of Man Steam Packet Co Ltd

Last reported at 2019-Oct-17 14:27 UTC. Time now 2019-Oct-17 15:10 UTC.
Position N 53°56' W 003°30'.

Length 125 m; draft 5 m.

Type: Ship. MMSI: 234983000.

Date/timePositionNaut miles runAvg speedWind from/ knotsBaromVisibWave heightAir tempDewpointWater temp
2019-Oct-17 14:27N 53°56' W 003°30'818.0
2019-Oct-17 14:00N 53°56' W 003°17'917.7
2019-Oct-17 13:31N 53°58' W 003°03'6 6.0
2019-Oct-17 12:29N 54°02' W 002°55'0 0.0
2019-Oct-17 11:45N 54°02' W 002°55'0 0.0
2019-Oct-17 11:28N 54°02' W 002°55'1 2.5
2019-Oct-17 11:00N 54°02' W 002°57'1019.8
2019-Oct-17 10:30N 53°56' W 003°10'918.0
2019-Oct-17 10:00N 53°56' W 003°26'917.2
2019-Oct-17 09:30N 53°58' W 003°40'7 0.9
2019-Oct-17 02:19N 53°56' W 003°29'618.1
2019-Oct-17 01:59N 53°56' W 003°20'817.6
2019-Oct-17 01:30N 53°57' W 003°05'815.2
2019-Oct-17 01:00N 54°02' W 002°55'0 0.0
2019-Oct-16 23:49N 54°02' W 002°55'0 0.0
2019-Oct-16 23:01N 54°02' W 002°55'0 0.0
2019-Oct-16 22:55N 54°02' W 002°55'0 0.0
2019-Oct-16 22:13N 54°02' W 002°55'0 0.6
2019-Oct-16 22:00N 54°02' W 002°55'917.1
2019-Oct-16 21:30N 53°57' W 003°06'918.9
2019-Oct-16 21:00N 53°56' W 003°22'917.9
2019-Oct-16 20:30N 53°58' W 003°37'917.9
2019-Oct-16 19:59N 54°01' W 003°53'14 2.5
2019-Oct-16 14:25N 53°56' W 003°31'717.8
2019-Oct-16 14:01N 53°55' W 003°18'917.5
2019-Oct-16 13:31N 53°57' W 003°04'714.0
2019-Oct-16 13:00N 54°02' W 002°55'0 0.0
2019-Oct-16 10:58N 54°02' W 002°55'613.3
2019-Oct-16 10:30N 53°58' W 003°03'1019.6
2019-Oct-16 10:00N 53°55' W 003°18'918.7
2019-Oct-16 09:30N 53°55' W 003°34'1018.5
2019-Oct-16 08:57N 53°60' W 003°50'13 2.0
2019-Oct-16 02:14N 53°56' W 003°29'518.7
2019-Oct-16 01:59N 53°56' W 003°21'918.6
2019-Oct-16 01:30N 53°57' W 003°06'816.7
2019-Oct-16 01:00N 54°02' W 002°55'0 0.0
2019-Oct-15 22:12N 54°02' W 002°55'0 0.4
2019-Oct-15 21:59N 54°02' W 002°55'715.3
2019-Oct-15 21:30N 53°57' W 003°05'1019.1
2019-Oct-15 21:00N 53°55' W 003°20'918.4
2019-Oct-15 20:30N 53°57' W 003°36'918.2
2019-Oct-15 20:00N 54°01' W 003°50'14 2.4
2019-Oct-15 14:15N 53°56' W 003°29'418.3
2019-Oct-15 14:00N 53°56' W 003°21'918.6
2019-Oct-15 13:30N 53°57' W 003°06'8 3.5
2019-Oct-15 11:13N 54°02' W 002°55'0 1.7
2019-Oct-15 11:00N 54°02' W 002°56'918.0
2019-Oct-15 10:30N 53°56' W 003°08'918.7
2019-Oct-15 10:00N 53°56' W 003°23'918.1
2019-Oct-15 09:30N 53°58' W 003°38'6 0.8
2019-Oct-15 02:14N 53°56' W 003°29'418.9
2019-Oct-15 02:01N 53°56' W 003°22'918.9
2019-Oct-15 01:31N 53°57' W 003°06'816.7
2019-Oct-15 01:00N 54°02' W 002°55'0 0.0
2019-Oct-15 00:26N 54°02' W 002°55'0 0.0
2019-Oct-15 00:00N 54°02' W 002°55'0 0.0
2019-Oct-14 23:30N 54°02' W 002°55'0 0.0
2019-Oct-14 22:59N 54°02' W 002°55'0 0.0
2019-Oct-14 22:30N 54°02' W 002°55'0 0.0
2019-Oct-14 22:00N 54°02' W 002°55'713.7
2019-Oct-14 21:30N 53°58' W 003°04'918.7
2019-Oct-14 21:00N 53°56' W 003°19'917.8
2019-Oct-14 20:30N 53°57' W 003°34'1017.9
2019-Oct-14 19:58N 54°00' W 003°50'14 2.4
2019-Oct-14 14:19N 53°56' W 003°28'719.0
2019-Oct-14 13:57N 53°56' W 003°17'919.4
2019-Oct-14 13:30N 53°58' W 003°03'6 6.6
2019-Oct-14 12:37N 54°02' W 002°55'0 0.0
2019-Oct-14 12:28N 54°02' W 002°55'0 0.0
2019-Oct-14 11:22N 54°02' W 002°55'0 0.2
2019-Oct-14 11:00N 54°02' W 002°55'816.4
2019-Oct-14 10:30N 53°57' W 003°06'918.2
2019-Oct-14 10:00N 53°56' W 003°21'917.6
2019-Oct-14 09:30N 53°57' W 003°36'1117.8
2019-Oct-14 08:55N 54°01' W 003°53'918.0
2019-Oct-14 08:25N 54°04' W 004°07'24 3.9
2019-Oct-14 02:13N 53°56' W 003°29'418.5
2019-Oct-14 02:00N 53°56' W 003°22'918.6
2019-Oct-14 01:30N 53°57' W 003°06'816.5
2019-Oct-14 01:00N 54°02' W 002°55'0 0.0
2019-Oct-13 22:24N 54°02' W 002°55'410.1
2019-Oct-13 22:01N 53°59' W 002°60'1019.5
2019-Oct-13 21:31N 53°56' W 003°15'1019.2
2019-Oct-13 21:00N 53°56' W 003°32'1 0.2
2019-Oct-13 14:23N 53°56' W 003°29'818.8
2019-Oct-13 13:58N 53°56' W 003°16'919.6
2019-Oct-13 13:30N 53°59' W 003°02'5 9.0
2019-Oct-13 12:55N 54°02' W 002°55'0 0.0
2019-Oct-13 12:28N 54°02' W 002°55'0 0.0
2019-Oct-13 11:16N 54°02' W 002°55'1 2.2
2019-Oct-13 11:01N 54°02' W 002°56'917.3
2019-Oct-13 10:30N 53°56' W 003°07'917.8
2019-Oct-13 10:00N 53°56' W 003°22'817.0
2019-Oct-13 09:30N 53°57' W 003°36'4 0.5
2019-Oct-13 02:14N 53°56' W 003°30'418.9
2019-Oct-13 02:01N 53°56' W 003°23'1019.1
2019-Oct-13 01:31N 53°57' W 003°07'917.9
2019-Oct-13 01:00N 54°02' W 002°55'0 0.0
2019-Oct-13 00:08N 54°02' W 002°55'0 0.0
2019-Oct-13 00:00N 54°02' W 002°55'0 0.0
2019-Oct-12 23:30N 54°02' W 002°55'0 0.0
2019-Oct-12 21:54N 54°02' W 002°55'411.4
2019-Oct-12 21:30N 53°59' W 003°00'1019.0
2019-Oct-12 21:00N 53°56' W 003°16'918.6
2019-Oct-12 20:30N 53°56' W 003°31'1118.4
2019-Oct-12 19:54N 54°00' W 003°49'12 2.2
2019-Oct-12 14:15N 53°56' W 003°29'418.1
2019-Oct-12 14:00N 53°56' W 003°22'918.2
2019-Oct-12 13:30N 53°57' W 003°06'916.5
2019-Oct-12 12:59N 54°02' W 002°55'0 0.0
2019-Oct-12 11:48N 54°02' W 002°55'0 0.1
2019-Oct-12 11:04N 54°02' W 002°55'0 0.7
2019-Oct-12 11:00N 54°02' W 002°55'815.5
2019-Oct-12 10:30N 53°57' W 003°05'917.7
2019-Oct-12 10:00N 53°55' W 003°20'918.0
2019-Oct-12 09:30N 53°56' W 003°35'4 0.6
2019-Oct-12 02:16N 53°56' W 003°28'517.3
2019-Oct-12 02:00N 53°56' W 003°20'917.6
2019-Oct-12 01:30N 53°57' W 003°05'8 3.0
2019-Oct-11 22:51N 54°02' W 002°55'0 0.0
2019-Oct-11 22:30N 54°02' W 002°55'0 0.2
2019-Oct-11 22:00N 54°02' W 002°55'815.1
2019-Oct-11 21:31N 53°57' W 003°05'918.3
2019-Oct-11 21:01N 53°55' W 003°20'918.0
2019-Oct-11 20:31N 53°57' W 003°35'1018.3
2019-Oct-11 19:59N 54°01' W 003°51'13 2.3
2019-Oct-11 14:29N 53°56' W 003°30'817.1
2019-Oct-11 14:00N 53°56' W 003°16'917.9
2019-Oct-11 13:30N 53°58' W 003°02'6 3.6
2019-Oct-11 11:55N 54°02' W 002°55'0 0.1
2019-Oct-11 11:08N 54°02' W 002°55'0 3.9
2019-Oct-11 11:01N 54°02' W 002°56'816.4
2019-Oct-11 10:30N 53°57' W 003°06'917.5
2019-Oct-11 10:00N 53°55' W 003°21'917.6
2019-Oct-11 09:31N 53°56' W 003°36'3 0.5
2019-Oct-11 02:23N 53°56' W 003°30'816.4
2019-Oct-11 01:53N 53°56' W 003°16'616.8
2019-Oct-11 01:30N 53°57' W 003°06'815.8
2019-Oct-11 01:00N 54°02' W 002°55'0 0.0
2019-Oct-11 00:29N 54°02' W 002°55'0 0.0
2019-Oct-11 00:00N 54°02' W 002°55'0 0.0
2019-Oct-10 23:30N 54°02' W 002°55'0 0.0
2019-Oct-10 23:00N 54°02' W 002°55'0 0.0
2019-Oct-10 22:30N 54°02' W 002°55'0 0.3
2019-Oct-10 22:01N 54°02' W 002°55'714.9
2019-Oct-10 21:30N 53°57' W 003°05'917.3
2019-Oct-10 21:00N 53°56' W 003°19'917.5
2019-Oct-10 20:30N 53°57' W 003°34'918.1
2019-Oct-10 20:00N 54°00' W 003°49'12 2.1
2019-Oct-10 14:20N 53°56' W 003°29'516.8
2019-Oct-10 14:01N 53°56' W 003°20'917.2
2019-Oct-10 13:31N 53°57' W 003°06'815.2
2019-Oct-10 12:59N 54°02' W 002°55'0 0.0
2019-Oct-10 12:18N 54°02' W 002°55'0 0.0
2019-Oct-10 11:08N 54°02' W 002°55'0 3.0
2019-Oct-10 11:00N 54°02' W 002°56'815.3
2019-Oct-10 10:30N 53°57' W 003°05'816.7
2019-Oct-10 10:01N 53°56' W 003°19'917.3
2019-Oct-10 09:31N 53°57' W 003°34'917.6
2019-Oct-10 09:00N 54°00' W 003°48'13 1.9
2019-Oct-10 02:21N 53°56' W 003°28'716.2
2019-Oct-10 01:55N 53°56' W 003°16'716.7
2019-Oct-10 01:30N 53°57' W 003°05'813.3
2019-Oct-10 00:56N 54°02' W 002°55'0 0.0
2019-Oct-09 23:38N 54°02' W 002°55'0 0.0
2019-Oct-09 23:17N 54°02' W 002°55'0 0.0
2019-Oct-09 22:53N 54°02' W 002°55'0 0.0
2019-Oct-09 22:09N 54°02' W 002°55'1 4.0
2019-Oct-09 22:00N 54°02' W 002°56'816.5
2019-Oct-09 21:30N 53°57' W 003°06'917.2
2019-Oct-09 21:00N 53°55' W 003°21'917.6
2019-Oct-09 20:30N 53°57' W 003°36'1017.9
2019-Oct-09 19:56N 54°01' W 003°52'14 2.6
2019-Oct-09 14:25N 53°56' W 003°29'815.6
2019-Oct-09 13:53N 53°56' W 003°15'616.6
2019-Oct-09 13:31N 53°57' W 003°05'7 4.2
2019-Oct-09 11:45N 54°02' W 002°55'0 0.0
2019-Oct-09 11:15N 54°02' W 002°55'1 3.8
2019-Oct-09 11:00N 54°02' W 002°56'816.5
2019-Oct-09 10:30N 53°56' W 003°07'816.8
2019-Oct-09 10:00N 53°56' W 003°21'917.2
2019-Oct-09 09:30N 53°57' W 003°36'917.4
2019-Oct-09 09:00N 54°00' W 003°50'13 2.1
2019-Oct-09 02:30N 53°56' W 003°28'815.8
2019-Oct-09 02:00N 53°56' W 003°15'816.6
2019-Oct-09 01:30N 53°58' W 003°02'5 6.2
2019-Oct-09 00:38N 54°02' W 002°55'0 0.0
2019-Oct-09 00:02N 54°02' W 002°55'0 0.0
2019-Oct-08 23:59N 54°02' W 002°55'0 0.0
2019-Oct-08 22:19N 54°02' W 002°55'3 9.4
2019-Oct-08 22:00N 54°00' W 002°59'816.4
2019-Oct-08 21:30N 53°56' W 003°11'816.8
2019-Oct-08 21:00N 53°56' W 003°25'817.0
2019-Oct-08 20:30N 53°58' W 003°39'6 1.0
2019-Oct-08 14:28N 53°56' W 003°29'815.9
2019-Oct-08 13:59N 53°56' W 003°16'816.3
2019-Oct-08 13:30N 53°58' W 003°03'611.3
2019-Oct-08 12:56N 54°02' W 002°55'0 0.0
2019-Oct-08 11:18N 54°02' W 002°55'310.3
2019-Oct-08 11:00N 54°00' W 002°59'816.5
2019-Oct-08 10:30N 53°56' W 003°11'816.9
2019-Oct-08 10:00N 53°55' W 003°25'816.9
2019-Oct-08 09:30N 53°57' W 003°40'917.2
2019-Oct-08 08:57N 53°60' W 003°55'15 2.3
2019-Oct-08 02:29N 53°56' W 003°30'915.7
2019-Oct-08 01:56N 53°56' W 003°15'716.6
2019-Oct-08 01:31N 53°57' W 003°04'713.7
2019-Oct-08 01:00N 54°02' W 002°55'0 0.0
2019-Oct-08 00:26N 54°02' W 002°55'0 0.0
2019-Oct-08 00:00N 54°02' W 002°55'0 0.0
2019-Oct-07 23:30N 54°02' W 002°55'0 0.0
2019-Oct-07 23:00N 54°02' W 002°55'0 0.0
2019-Oct-07 22:30N 54°02' W 002°55'510.3
2019-Oct-07 22:00N 53°59' W 003°01'816.4
2019-Oct-07 21:30N 53°56' W 003°14'816.8
2019-Oct-07 21:00N 53°56' W 003°29'816.7
2019-Oct-07 20:30N 53°59' W 003°42'916.8
2019-Oct-07 20:00N 54°01' W 003°56'17 3.1
2019-Oct-07 14:35N 53°56' W 003°29'115.8
2019-Oct-07 14:30N 53°56' W 003°26'  

Dump ship's entire track history